Time;durP1;ratioP1;P1;durP2;ratioP2;P2;SDS_P1;SDS_P2;PMS_P1;PMS_P2;Temp;Humidity;BMP_temperature;BMP_pressure;BME280_temperature;BME280_humidity;BME280_pressure;Samples;Min_cycle;Max_cycle;Signal;HPM_P1;HPM_P2
2024/03/10 00:02:15;;;;;;;21.13;11.03;;;13.10;56.50;;;;;;5053839;28;20481;-57
2024/03/10 00:04:42;;;;;;;14.10;10.93;;;13.10;56.50;;;;;;5053678;28;20442;-57
2024/03/10 00:07:09;;;;;;;12.63;11.33;;;13.10;56.50;;;;;;5053976;28;20449;-57
2024/03/10 00:09:36;;;;;;;11.80;10.57;;;13.00;56.50;;;;;;5053757;28;20496;-56
2024/03/10 00:12:04;;;;;;;13.70;11.03;;;13.00;56.60;;;;;;5053900;28;20449;-56
2024/03/10 00:14:32;;;;;;;13.80;10.93;;;12.90;56.70;;;;;;5053712;28;20446;-57
2024/03/10 00:16:59;;;;;;;14.00;11.53;;;12.90;57.30;;;;;;5053697;28;20445;-56
2024/03/10 00:19:25;;;;;;;14.10;11.50;;;12.90;56.90;;;;;;5053373;28;20936;-56
2024/03/10 00:21:54;;;;;;;12.53;11.00;;;12.80;57.10;;;;;;5053682;28;20449;-56
2024/03/10 00:24:20;;;;;;;14.50;11.53;;;12.80;57.50;;;;;;5053265;28;20826;-56
2024/03/10 00:26:47;;;;;;;12.97;10.60;;;12.80;57.50;;;;;;5053525;28;20469;-56
2024/03/10 00:29:15;;;;;;;12.93;11.10;;;12.80;57.40;;;;;;5054086;28;20449;-56
2024/03/10 00:31:42;;;;;;;14.60;10.57;;;12.70;57.50;;;;;;5053494;28;20472;-56
2024/03/10 00:34:09;;;;;;;12.50;10.50;;;12.70;57.70;;;;;;5053587;28;20445;-56
2024/03/10 00:36:36;;;;;;;17.13;10.13;;;12.70;57.90;;;;;;5053321;28;20461;-56
2024/03/10 00:39:04;;;;;;;14.93;10.13;;;12.60;58.00;;;;;;5053389;28;20523;-56
2024/03/10 00:41:31;;;;;;;13.13;10.00;;;12.60;58.20;;;;;;5053399;28;20537;-56
2024/03/10 00:43:58;;;;;;;13.60;10.50;;;12.60;58.40;;;;;;5053459;28;20449;-56
2024/03/10 00:46:26;;;;;;;11.23;9.70;;;12.60;58.30;;;;;;5053309;28;20465;-56
2024/03/10 00:48:53;;;;;;;10.80;9.00;;;12.60;58.50;;;;;;5053284;28;20437;-56
2024/03/10 00:51:20;;;;;;;12.40;10.67;;;12.60;58.60;;;;;;5053203;28;20487;-56
2024/03/10 00:53:46;;;;;;;11.90;9.87;;;12.60;58.80;;;;;;5052735;28;20479;-56
2024/03/10 00:56:18;;;;;;;12.03;9.37;;;12.60;58.80;;;;;;5052491;28;20485;-56
2024/03/10 00:58:45;;;;;;;10.97;9.20;;;12.60;58.80;;;;;;5053022;28;20430;-56
2024/03/10 01:01:12;;;;;;;12.73;9.83;;;12.60;58.80;;;;;;5053104;28;20446;-56
2024/03/10 01:03:42;;;;;;;13.20;10.67;;;12.60;58.80;;;;;;5053057;28;20441;-56
2024/03/10 01:06:12;;;;;;;12.23;10.10;;;12.60;58.90;;;;;;5052771;28;20971;-56
2024/03/10 01:08:39;;;;;;;12.00;9.57;;;12.60;58.90;;;;;;5053053;28;20856;-56
2024/03/10 01:11:07;;;;;;;11.00;9.53;;;12.60;58.90;;;;;;5052934;28;20491;-56
2024/03/10 01:13:34;;;;;;;11.23;9.87;;;12.60;58.80;;;;;;5053105;28;20449;-56
2024/03/10 01:16:02;;;;;;;13.87;10.30;;;12.60;58.70;;;;;;5052685;28;21018;-56
2024/03/10 01:18:29;;;;;;;12.87;10.40;;;12.60;58.80;;;;;;5053053;28;20449;-56
2024/03/10 01:20:57;;;;;;;11.67;10.10;;;12.60;58.70;;;;;;5053139;28;20437;-56
2024/03/10 01:23:24;;;;;;;11.63;9.30;;;12.60;58.50;;;;;;5052946;28;20445;-56
2024/03/10 01:25:51;;;;;;;11.03;9.07;;;12.60;58.40;;;;;;5052993;28;20887;-56
2024/03/10 01:28:18;;;;;;;13.60;9.97;;;12.60;58.50;;;;;;5053092;28;20471;-56
2024/03/10 01:30:46;;;;;;;13.47;10.13;;;12.60;58.50;;;;;;5053040;28;20487;-56
2024/03/10 01:33:13;;;;;;;12.67;9.87;;;12.60;58.60;;;;;;5053284;28;20474;-56
2024/03/10 01:35:42;;;;;;;11.63;9.83;;;12.60;58.60;;;;;;5052764;28;20465;-56
2024/03/10 01:38:10;;;;;;;13.90;9.90;;;12.50;58.60;;;;;;5053382;28;20492;-57
2024/03/10 01:40:37;;;;;;;13.80;10.60;;;12.50;58.70;;;;;;5052827;28;20495;-56
2024/03/10 01:43:05;;;;;;;14.93;10.13;;;12.50;58.70;;;;;;5052684;28;20940;-56
2024/03/10 01:45:33;;;;;;;11.90;9.63;;;12.50;58.60;;;;;;5052929;28;20497;-57
2024/03/10 01:48:01;;;;;;;14.33;10.00;;;12.50;58.40;;;;;;5052761;28;20449;-56
2024/03/10 01:50:29;;;;;;;14.17;10.33;;;12.50;58.60;;;;;;5052923;28;20559;-56
2024/03/10 01:52:55;;;;;;;14.33;10.17;;;12.50;58.50;;;;;;5052775;28;20448;-57
2024/03/10 01:55:24;;;;;;;12.33;9.40;;;12.40;58.70;;;;;;5052845;28;20461;-56
2024/03/10 01:57:53;;;;;;;12.43;10.20;;;12.40;58.70;;;;;;5052507;28;20437;-56
2024/03/10 02:00:21;;;;;;;12.67;9.73;;;12.40;58.80;;;;;;5052560;28;20936;-56
2024/03/10 02:02:48;;;;;;;13.47;10.80;;;12.40;58.90;;;;;;5052599;28;20496;-56
2024/03/10 02:05:17;;;;;;;11.63;9.53;;;12.40;59.00;;;;;;5055553;28;20453;-57
2024/03/10 02:07:43;;;;;;;12.90;10.17;;;12.30;58.70;;;;;;5056317;28;20478;-56
2024/03/10 02:10:10;;;;;;;13.30;10.20;;;12.30;58.80;;;;;;5055866;28;20999;-56
2024/03/10 02:12:40;;;;;;;12.90;9.57;;;12.30;59.00;;;;;;5055865;28;20954;-56
2024/03/10 02:15:08;;;;;;;12.30;10.27;;;12.30;59.00;;;;;;5055987;28;20519;-56
2024/03/10 02:17:36;;;;;;;12.70;9.93;;;12.30;59.20;;;;;;5055681;28;20499;-56
2024/03/10 02:20:04;;;;;;;11.53;9.17;;;12.30;59.30;;;;;;5056068;28;20484;-56
2024/03/10 02:22:31;;;;;;;10.97;9.87;;;12.30;59.40;;;;;;5055915;28;20539;-56
2024/03/10 02:24:59;;;;;;;13.50;9.00;;;12.30;59.40;;;;;;5055547;28;20548;-56
2024/03/10 02:27:28;;;;;;;10.23;8.60;;;12.30;59.30;;;;;;5055765;28;20453;-56
2024/03/10 02:30:18;;;;;;;10.67;9.47;;;12.30;59.50;;;;;;5055700;28;20503;-56
2024/03/10 02:49:12;;;;;;;10.50;8.80;;;12.20;59.80;;;;;;5055577;28;20475;-56
2024/03/10 02:51:39;;;;;;;20.60;9.10;;;12.20;59.30;;;;;;5055409;28;20516;-57
2024/03/10 02:54:06;;;;;;;12.50;9.03;;;12.20;59.10;;;;;;5055415;28;20449;-57
2024/03/10 02:56:32;;;;;;;10.90;8.50;;;12.10;59.10;;;;;;5054947;28;20477;-57
2024/03/10 02:59:01;;;;;;;11.30;9.10;;;12.10;59.30;;;;;;5055073;28;20485;-57
2024/03/10 03:01:27;;;;;;;10.57;8.87;;;12.10;59.70;;;;;;5055419;28;20433;-56
2024/03/10 03:03:54;;;;;;;11.03;8.20;;;12.10;60.00;;;;;;5055161;28;20442;-56
2024/03/10 03:06:22;;;;;;;17.30;9.80;;;12.10;60.20;;;;;;5055140;28;20464;-56
2024/03/10 03:08:48;;;;;;;11.57;9.10;;;12.10;60.30;;;;;;5055063;28;20446;-56
2024/03/10 03:11:15;;;;;;;13.03;8.90;;;12.00;60.20;;;;;;5055449;28;20758;-56
2024/03/10 03:13:42;;;;;;;11.00;8.80;;;12.00;60.30;;;;;;5054868;28;20507;-56
2024/03/10 03:16:10;;;;;;;11.40;8.60;;;12.00;60.80;;;;;;5054821;28;20465;-56
2024/03/10 03:18:37;;;;;;;14.53;10.20;;;12.00;61.20;;;;;;5054973;28;20450;-56
2024/03/10 03:21:04;;;;;;;10.97;8.63;;;11.90;61.20;;;;;;5054856;28;20448;-56
2024/03/10 03:23:31;;;;;;;11.57;9.10;;;11.80;61.30;;;;;;5054697;28;20525;-56
2024/03/10 03:25:58;;;;;;;12.53;9.40;;;11.80;61.50;;;;;;5054609;28;20461;-56
2024/03/10 03:28:25;;;;;;;9.63;8.60;;;11.70;61.60;;;;;;5054621;28;20532;-56
2024/03/10 03:30:51;;;;;;;13.27;9.40;;;11.70;62.10;;;;;;5054435;28;20481;-56
2024/03/10 03:33:20;;;;;;;15.13;9.47;;;11.70;62.70;;;;;;5054532;28;20438;-56
2024/03/10 03:35:48;;;;;;;11.50;9.47;;;11.60;62.90;;;;;;5054183;28;20983;-56
2024/03/10 03:38:14;;;;;;;13.07;9.43;;;11.60;63.10;;;;;;5054626;28;20450;-56
2024/03/10 03:40:41;;;;;;;14.30;10.87;;;11.60;63.30;;;;;;5054498;28;20444;-56
2024/03/10 03:43:10;;;;;;;11.40;9.20;;;11.50;63.40;;;;;;5054506;28;20446;-56
2024/03/10 03:45:37;;;;;;;13.03;10.27;;;11.50;63.60;;;;;;5054345;28;20466;-56
2024/03/10 03:48:04;;;;;;;13.03;10.03;;;11.50;63.90;;;;;;5054280;28;20437;-56
2024/03/10 03:50:33;;;;;;;13.93;10.97;;;11.40;64.00;;;;;;5054178;28;20473;-56
2024/03/10 03:53:00;;;;;;;14.50;10.30;;;11.40;64.40;;;;;;5053900;28;20972;-56
2024/03/10 03:55:29;;;;;;;15.47;10.00;;;11.40;64.70;;;;;;5053911;28;20454;-56
2024/03/10 03:57:56;;;;;;;14.67;12.17;;;11.30;64.90;;;;;;5054215;28;20430;-56
2024/03/10 04:00:23;;;;;;;15.00;12.27;;;11.30;65.10;;;;;;5054887;28;20441;-56
2024/03/10 04:02:50;;;;;;;13.93;11.80;;;11.20;65.50;;;;;;5053799;28;20452;-56
2024/03/10 04:05:17;;;;;;;14.77;12.20;;;11.20;65.90;;;;;;5053973;28;20470;-56
2024/03/10 04:07:46;;;;;;;15.20;10.97;;;11.10;66.40;;;;;;5053813;28;20438;-56
2024/03/10 04:10:12;;;;;;;14.40;11.63;;;11.10;66.80;;;;;;5053842;28;20446;-56
2024/03/10 04:12:39;;;;;;;15.90;11.60;;;11.00;67.20;;;;;;5054017;28;20445;-56
2024/03/10 04:15:07;;;;;;;15.07;12.60;;;11.00;67.70;;;;;;5053855;28;20461;-56
2024/03/10 04:17:33;;;;;;;16.00;12.70;;;11.00;68.10;;;;;;5053760;28;20488;-56
2024/03/10 04:20:01;;;;;;;17.60;11.90;;;11.00;68.50;;;;;;5054546;28;20474;-56
2024/03/10 04:22:27;;;;;;;15.67;13.30;;;10.90;68.40;;;;;;5053674;28;20446;-56
2024/03/10 04:24:56;;;;;;;15.27;12.10;;;10.90;68.70;;;;;;5053404;28;20469;-57
2024/03/10 04:27:24;;;;;;;13.00;11.20;;;10.90;69.00;;;;;;5053093;28;20449;-56
2024/03/10 04:29:50;;;;;;;17.87;13.10;;;10.90;69.30;;;;;;5053462;28;20449;-56
2024/03/10 04:32:16;;;;;;;17.30;12.70;;;10.90;69.50;;;;;;5053407;28;20481;-57
2024/03/10 04:34:46;;;;;;;17.73;13.57;;;10.90;69.60;;;;;;5053333;28;20456;-56
2024/03/10 04:37:13;;;;;;;15.90;12.80;;;10.80;69.70;;;;;;5053790;28;20298;-56
2024/03/10 04:39:40;;;;;;;14.87;12.80;;;10.80;70.10;;;;;;5053542;28;20441;-56
2024/03/10 04:42:09;;;;;;;15.37;13.03;;;10.80;70.10;;;;;;5053397;28;20449;-56
2024/03/10 04:44:35;;;;;;;18.70;13.13;;;10.70;70.20;;;;;;5053246;28;20871;-57
2024/03/10 04:47:03;;;;;;;19.53;15.30;;;10.70;70.70;;;;;;5052881;28;20956;-56
2024/03/10 04:49:33;;;;;;;15.07;12.97;;;10.70;71.30;;;;;;5053198;28;20450;-56
2024/03/10 04:52:00;;;;;;;15.80;12.87;;;10.60;71.60;;;;;;5053357;28;20527;-56
2024/03/10 04:54:27;;;;;;;15.10;13.07;;;10.60;71.90;;;;;;5053338;28;20448;-57
2024/03/10 04:56:54;;;;;;;16.50;13.17;;;10.60;72.30;;;;;;5052962;28;20483;-56
2024/03/10 04:59:23;;;;;;;18.77;13.93;;;10.60;72.60;;;;;;5053152;28;20545;-56
2024/03/10 05:01:57;;;;;;;16.73;13.13;;;10.60;72.80;;;;;;5053250;28;20468;-56
2024/03/10 05:04:23;;;;;;;16.60;12.00;;;10.60;73.00;;;;;;5052851;28;20909;-56
2024/03/10 05:06:50;;;;;;;15.30;12.70;;;10.60;73.20;;;;;;5052706;28;20480;-57
2024/03/10 05:09:17;;;;;;;14.60;13.10;;;10.60;73.40;;;;;;5053256;28;20449;-56
2024/03/10 05:11:44;;;;;;;14.57;12.30;;;10.60;73.60;;;;;;5052980;28;20485;-56
2024/03/10 05:14:12;;;;;;;19.07;13.93;;;10.60;73.50;;;;;;5053156;28;20537;-56
2024/03/10 05:16:41;;;;;;;16.30;12.90;;;10.60;73.80;;;;;;5053042;28;20473;-56
2024/03/10 05:19:09;;;;;;;18.10;14.07;;;10.60;73.90;;;;;;5053040;28;20448;-56
2024/03/10 05:21:36;;;;;;;17.57;14.50;;;10.60;73.90;;;;;;5052894;28;20445;-56
2024/03/10 05:24:03;;;;;;;16.13;13.57;;;10.60;73.80;;;;;;5052660;28;21034;-56
2024/03/10 05:26:30;;;;;;;18.93;13.93;;;10.60;74.10;;;;;;5052935;28;20486;-56
2024/03/10 05:28:56;;;;;;;15.90;13.50;;;10.60;74.50;;;;;;5052525;28;20947;-56
2024/03/10 05:31:28;;;;;;;16.63;13.23;;;10.60;74.70;;;;;;5052446;28;21014;-56
2024/03/10 05:33:57;;;;;;;18.20;12.60;;;10.60;74.90;;;;;;5052936;28;20457;-56
2024/03/10 05:36:24;;;;;;;17.90;13.23;;;10.60;75.20;;;;;;5052856;28;20826;-56
2024/03/10 05:38:51;;;;;;;20.43;15.57;;;10.50;75.40;;;;;;5053271;28;20455;-56
2024/03/10 05:41:18;;;;;;;18.50;14.60;;;10.50;75.50;;;;;;5056693;28;20444;-56
2024/03/10 05:43:45;;;;;;;20.27;13.87;;;10.50;75.80;;;;;;5056720;28;20441;-56
2024/03/10 05:46:13;;;;;;;18.20;13.87;;;10.50;76.10;;;;;;5056110;28;20552;-56
2024/03/10 05:48:41;;;;;;;18.40;13.40;;;10.50;76.00;;;;;;5056588;28;20449;-56
2024/03/10 05:51:10;;;;;;;16.13;13.60;;;10.50;76.10;;;;;;5056171;28;20829;-56
2024/03/10 05:53:38;;;;;;;17.70;13.57;;;10.50;76.30;;;;;;5056491;28;20441;-56
2024/03/10 05:56:07;;;;;;;17.07;13.03;;;10.50;76.50;;;;;;5056273;28;20543;-56
2024/03/10 05:58:34;;;;;;;19.60;13.27;;;10.40;76.40;;;;;;5056531;28;20495;-56
2024/03/10 06:01:02;;;;;;;16.80;13.47;;;10.40;76.50;;;;;;5056432;28;20449;-56
2024/03/10 06:03:28;;;;;;;16.67;13.27;;;10.40;76.50;;;;;;5056020;28;20858;-56
2024/03/10 06:05:55;;;;;;;15.30;12.27;;;10.40;76.70;;;;;;5056269;28;20917;-56
2024/03/10 06:08:24;;;;;;;17.17;13.07;;;10.40;76.90;;;;;;5055852;28;20943;-56
2024/03/10 06:10:51;;;;;;;16.53;13.13;;;10.40;77.00;;;;;;5055818;28;20950;-56
2024/03/10 06:13:18;;;;;;;14.70;12.30;;;10.40;77.20;;;;;;5056114;28;20457;-56
2024/03/10 06:15:45;;;;;;;18.23;13.57;;;10.40;77.10;;;;;;5056078;28;20465;-56
2024/03/10 06:18:21;;;;;;;15.70;13.10;;;10.40;77.40;;;;;;5056087;28;20810;-56
2024/03/10 06:26:14;;;;;;;17.00;13.40;;;10.40;77.90;;;;;;5055419;28;20616;-56
2024/03/10 06:28:42;;;;;;;17.07;14.00;;;10.40;78.00;;;;;;5055805;28;20833;-56
2024/03/10 06:31:08;;;;;;;18.23;13.90;;;10.40;78.30;;;;;;5055732;28;20524;-57
2024/03/10 06:33:38;;;;;;;17.20;13.80;;;10.40;78.40;;;;;;5056283;28;20447;-56
2024/03/10 06:36:08;;;;;;;16.90;13.20;;;10.40;78.40;;;;;;5055670;28;20522;-56
2024/03/10 06:38:38;;;;;;;17.47;13.90;;;10.40;78.40;;;;;;5055790;28;20458;-56
2024/03/10 06:41:05;;;;;;;17.53;14.03;;;10.40;78.30;;;;;;5055410;28;20499;-56
2024/03/10 06:43:32;;;;;;;18.90;13.40;;;10.40;78.50;;;;;;5055389;28;20975;-56
2024/03/10 06:45:59;;;;;;;15.53;13.70;;;10.40;78.40;;;;;;5055536;28;20466;-56
2024/03/10 06:48:26;;;;;;;18.27;12.70;;;10.50;78.30;;;;;;5055426;28;20445;-56
2024/03/10 06:50:54;;;;;;;15.73;13.30;;;10.50;78.10;;;;;;5055146;28;20445;-56
2024/03/10 06:53:22;;;;;;;17.00;13.40;;;10.50;78.20;;;;;;5055042;28;21007;-56
2024/03/10 06:55:50;;;;;;;15.47;12.00;;;10.50;78.30;;;;;;5055168;28;20485;-56
2024/03/10 06:58:17;;;;;;;15.13;12.10;;;10.50;78.20;;;;;;5055524;28;20555;-56
2024/03/10 07:00:44;;;;;;;18.03;14.73;;;10.60;78.20;;;;;;5055526;28;20442;-56
2024/03/10 07:03:11;;;;;;;16.43;13.43;;;10.60;78.10;;;;;;5055365;28;20446;-56
2024/03/10 07:05:39;;;;;;;20.10;15.17;;;10.60;77.80;;;;;;5055249;28;20552;-56
2024/03/10 07:08:07;;;;;;;18.63;13.90;;;10.70;77.90;;;;;;5055133;28;20456;-56
2024/03/10 07:10:35;;;;;;;15.10;12.77;;;10.70;77.90;;;;;;5054740;28;20456;-56
2024/03/10 07:13:03;;;;;;;18.10;12.10;;;10.70;77.80;;;;;;5055150;28;20477;-56
2024/03/10 07:15:31;;;;;;;17.50;13.50;;;10.80;78.20;;;;;;5055081;28;20492;-56
2024/03/10 07:17:58;;;;;;;15.90;13.13;;;10.80;78.00;;;;;;5054937;28;20449;-56
2024/03/10 07:20:25;;;;;;;16.90;14.20;;;10.90;77.80;;;;;;5055075;28;20446;-56
2024/03/10 07:22:53;;;;;;;15.93;13.60;;;10.90;77.80;;;;;;5054684;28;20935;-56
2024/03/10 07:25:24;;;;;;;20.20;14.83;;;11.00;78.10;;;;;;5054563;28;21010;-56
2024/03/10 07:27:50;;;;;;;16.53;12.40;;;11.00;78.00;;;;;;5055037;28;20430;-56
2024/03/10 07:30:19;;;;;;;19.20;13.40;;;11.10;78.00;;;;;;5054808;28;20446;-56
2024/03/10 07:32:46;;;;;;;15.57;13.53;;;11.20;77.50;;;;;;5054610;28;20481;-56
2024/03/10 07:35:13;;;;;;;15.70;13.10;;;11.30;77.00;;;;;;5054564;28;20489;-56
2024/03/10 07:37:40;;;;;;;16.60;13.70;;;11.40;76.60;;;;;;5054576;28;20442;-56
2024/03/10 07:40:15;;;;;;;18.60;14.00;;;11.40;76.30;;;;;;5054345;28;20433;-56
2024/03/10 07:42:42;;;;;;;15.13;12.90;;;11.50;76.30;;;;;;5054542;28;20453;-56
2024/03/10 07:45:09;;;;;;;14.33;12.40;;;11.60;76.10;;;;;;5054036;28;20465;-56
2024/03/10 07:47:38;;;;;;;17.07;13.07;;;11.60;76.10;;;;;;5054334;28;20866;-56
2024/03/10 07:50:07;;;;;;;17.83;12.80;;;11.70;76.00;;;;;;5054300;28;20437;-56
2024/03/10 07:52:35;;;;;;;18.10;13.80;;;11.70;75.70;;;;;;5054132;28;20923;-56
2024/03/10 07:55:04;;;;;;;15.40;13.17;;;11.80;75.50;;;;;;5053874;28;20548;-56
2024/03/10 07:57:31;;;;;;;19.70;12.77;;;11.80;75.40;;;;;;5053790;28;20457;-56
2024/03/10 07:59:58;;;;;;;16.83;13.77;;;11.90;75.20;;;;;;5053909;28;21004;-56
2024/03/10 08:02:26;;;;;;;15.73;12.80;;;11.90;74.90;;;;;;5053415;28;20438;-56
2024/03/10 08:04:54;;;;;;;16.13;12.87;;;12.00;74.60;;;;;;5053718;28;20443;-56
2024/03/10 08:07:21;;;;;;;17.83;13.43;;;12.00;74.20;;;;;;5053577;28;20446;-56
2024/03/10 08:09:48;;;;;;;15.90;13.20;;;12.10;74.20;;;;;;5053559;28;20449;-56
2024/03/10 08:12:14;;;;;;;16.23;14.50;;;12.10;74.00;;;;;;5053387;28;20478;-56
2024/03/10 08:14:41;;;;;;;16.43;13.70;;;12.20;73.50;;;;;;5053553;28;20449;-57
2024/03/10 08:17:08;;;;;;;18.27;14.70;;;12.20;73.20;;;;;;5053937;28;20453;-56
2024/03/10 08:19:36;;;;;;;16.00;13.80;;;12.20;72.00;;;;;;5053955;28;20457;-56
2024/03/10 08:22:05;;;;;;;17.47;14.47;;;12.30;72.00;;;;;;5053658;28;20486;-56
2024/03/10 08:24:32;;;;;;;15.53;13.87;;;12.30;72.10;;;;;;5053856;28;20456;-56
2024/03/10 08:26:59;;;;;;;16.23;12.90;;;12.40;72.40;;;;;;5053603;28;20556;-56
2024/03/10 08:29:26;;;;;;;13.37;11.97;;;12.50;72.30;;;;;;5053291;28;20995;-56
2024/03/10 08:31:54;;;;;;;15.87;12.97;;;12.60;72.50;;;;;;5053536;28;20821;-56
2024/03/10 08:34:23;;;;;;;14.60;11.67;;;12.70;72.20;;;;;;5053560;28;20450;-56
2024/03/10 08:36:50;;;;;;;15.93;13.70;;;12.80;72.00;;;;;;5053451;28;20492;-57
2024/03/10 08:39:19;;;;;;;15.07;13.43;;;12.90;71.60;;;;;;5053545;28;20452;-56
2024/03/10 08:41:48;;;;;;;15.67;13.40;;;13.00;71.10;;;;;;5053064;28;20943;-56
2024/03/10 08:44:15;;;;;;;14.43;11.97;;;13.20;70.60;;;;;;5053873;28;20516;-56
2024/03/10 08:46:44;;;;;;;14.47;12.97;;;13.30;70.10;;;;;;5053511;28;20512;-57
2024/03/10 08:49:11;;;;;;;16.37;14.37;;;13.40;69.80;;;;;;5053313;28;20550;-56
2024/03/10 08:51:38;;;;;;;18.33;14.40;;;13.60;69.00;;;;;;5053929;28;20449;-56
2024/03/10 08:54:07;;;;;;;15.90;13.70;;;13.70;68.30;;;;;;5053337;28;20438;-56
2024/03/10 08:56:36;;;;;;;19.63;13.50;;;13.80;67.90;;;;;;5052849;28;20480;-56
2024/03/10 08:59:03;;;;;;;15.00;12.77;;;13.90;67.80;;;;;;5052991;28;21015;-56
2024/03/10 09:01:31;;;;;;;16.20;13.00;;;14.10;67.80;;;;;;5053203;28;20454;-56
2024/03/10 09:04:02;;;;;;;14.27;12.77;;;14.20;67.60;;;;;;5053158;28;20811;-56
2024/03/10 09:06:29;;;;;;;15.07;13.50;;;14.40;67.40;;;;;;5052861;28;20967;-56
2024/03/10 09:08:57;;;;;;;13.23;11.83;;;14.50;67.00;;;;;;5053126;28;20448;-56
2024/03/10 09:11:24;;;;;;;14.50;11.40;;;14.70;66.80;;;;;;5053125;28;20446;-56
2024/03/10 09:13:52;;;;;;;15.00;12.10;;;14.80;66.10;;;;;;5055562;28;20521;-56
2024/03/10 09:16:19;;;;;;;13.80;11.80;;;14.90;64.80;;;;;;5057163;28;20491;-56
2024/03/10 09:18:46;;;;;;;13.23;11.83;;;15.00;64.70;;;;;;5057162;28;20449;-56
2024/03/10 09:21:14;;;;;;;15.10;12.27;;;15.00;63.70;;;;;;5057203;28;20477;-56
2024/03/10 09:23:41;;;;;;;13.70;12.30;;;15.00;64.30;;;;;;5057086;28;20450;-56
2024/03/10 09:26:07;;;;;;;14.23;12.57;;;15.20;63.90;;;;;;5057057;28;20472;-56
2024/03/10 09:28:35;;;;;;;14.50;10.83;;;15.30;64.50;;;;;;5056860;28;20471;-56
2024/03/10 09:31:03;;;;;;;15.97;13.33;;;15.50;64.20;;;;;;5056993;28;20449;-56
2024/03/10 09:33:30;;;;;;;14.83;13.27;;;15.60;63.00;;;;;;5056816;28;20481;-57
2024/03/10 09:35:58;;;;;;;18.03;13.73;;;15.70;62.40;;;;;;5056432;28;20835;-56
2024/03/10 09:38:25;;;;;;;15.03;12.40;;;15.80;62.10;;;;;;5056484;28;20944;-57
2024/03/10 09:40:52;;;;;;;16.30;12.47;;;15.90;61.10;;;;;;5056805;28;20441;-56
2024/03/10 09:43:21;;;;;;;14.27;12.87;;;15.90;61.20;;;;;;5056819;28;20441;-56
2024/03/10 09:45:48;;;;;;;14.83;12.33;;;16.00;61.40;;;;;;5057151;28;20476;-56
2024/03/10 09:48:17;;;;;;;14.73;12.50;;;16.00;61.00;;;;;;5056253;28;20951;-56
2024/03/10 09:50:48;;;;;;;12.23;10.93;;;16.10;60.70;;;;;;5056441;28;20528;-56
2024/03/10 09:53:17;;;;;;;13.00;11.43;;;16.30;60.00;;;;;;5056617;28;20520;-56
2024/03/10 09:55:44;;;;;;;20.13;12.33;;;16.50;59.40;;;;;;5056200;28;20472;-57
2024/03/10 09:58:14;;;;;;;15.10;12.60;;;16.80;59.10;;;;;;5056549;28;20426;-56
2024/03/10 10:00:44;;;;;;;13.83;12.13;;;16.90;57.40;;;;;;5056801;28;20449;-56
2024/03/10 10:03:12;;;;;;;15.40;12.57;;;17.00;56.60;;;;;;5056150;28;20421;-56
2024/03/10 10:05:46;;;;;;;12.90;11.57;;;17.20;57.20;;;;;;5056357;28;20469;-57
2024/03/10 10:08:13;;;;;;;13.23;11.93;;;17.30;56.90;;;;;;5056058;28;20543;-57
2024/03/10 10:10:42;;;;;;;13.73;12.30;;;17.50;57.00;;;;;;5055902;28;20559;-57
2024/03/10 10:13:20;;;;;;;13.33;11.93;;;17.80;56.20;;;;;;5056201;28;20479;-57
2024/03/10 10:15:48;;;;;;;13.30;11.60;;;18.20;55.50;;;;;;5055887;28;20822;-56
2024/03/10 10:18:17;;;;;;;14.17;12.10;;;18.60;54.70;;;;;;5056241;28;20513;-56
2024/03/10 10:20:48;;;;;;;13.10;11.70;;;18.90;53.30;;;;;;5056125;28;20532;-56
2024/03/10 10:23:15;;;;;;;13.73;12.33;;;19.20;52.00;;;;;;5056023;28;20426;-56
2024/03/10 10:25:45;;;;;;;13.27;11.97;;;19.50;51.40;;;;;;5055109;28;20549;-56
2024/03/10 10:28:14;;;;;;;12.67;11.47;;;19.60;51.30;;;;;;5055882;28;20453;-56
2024/03/10 10:30:41;;;;;;;13.30;11.50;;;19.70;50.20;;;;;;5055636;28;20484;-56
2024/03/10 10:33:11;;;;;;;11.83;10.63;;;19.80;50.00;;;;;;5055663;28;20628;-56
2024/03/10 10:35:42;;;;;;;12.10;11.00;;;19.90;49.60;;;;;;5055656;28;20472;-56
2024/03/10 10:38:13;;;;;;;11.50;10.40;;;20.20;48.70;;;;;;5055531;28;20966;-56
2024/03/10 10:40:41;;;;;;;12.83;10.83;;;20.40;48.60;;;;;;5055406;28;20434;-56
2024/03/10 10:43:09;;;;;;;12.50;10.73;;;20.60;47.60;;;;;;5055322;28;20967;-56
2024/03/10 10:45:36;;;;;;;11.20;10.17;;;20.70;46.80;;;;;;5056303;28;20466;-56
2024/03/10 10:48:03;;;;;;;11.50;10.40;;;20.90;46.60;;;;;;5055222;28;20456;-56
2024/03/10 10:50:33;;;;;;;12.37;11.17;;;21.10;45.80;;;;;;5055405;28;20447;-56
2024/03/10 10:53:01;;;;;;;12.73;11.30;;;21.30;45.10;;;;;;5055104;28;20473;-56
2024/03/10 10:55:30;;;;;;;13.50;10.70;;;21.20;45.10;;;;;;5054867;28;20548;-57
2024/03/10 10:57:58;;;;;;;11.97;10.77;;;21.20;45.40;;;;;;5055150;28;20426;-56
2024/03/10 11:00:29;;;;;;;11.73;10.63;;;21.10;45.40;;;;;;5055126;28;20966;-56
2024/03/10 11:03:07;;;;;;;14.43;12.43;;;21.10;46.10;;;;;;5055242;28;20790;-56
2024/03/10 11:05:36;;;;;;;12.00;10.80;;;21.00;45.20;;;;;;5055796;28;20469;-56
2024/03/10 11:08:05;;;;;;;12.87;11.50;;;20.70;46.40;;;;;;5055155;28;20445;-56
2024/03/10 11:10:47;;;;;;;14.20;12.73;;;20.70;46.60;;;;;;5054994;28;20532;-56
2024/03/10 11:13:15;;;;;;;13.27;11.87;;;20.60;46.50;;;;;;5055143;28;20488;-55
2024/03/10 11:15:42;;;;;;;12.73;11.53;;;20.40;46.60;;;;;;5055208;28;20830;-56
2024/03/10 11:18:25;;;;;;;13.40;11.00;;;20.30;47.20;;;;;;5054824;28;20452;-55
2024/03/10 11:20:53;;;;;;;12.90;11.50;;;20.20;47.60;;;;;;5054778;28;20480;-56
2024/03/10 11:23:30;;;;;;;12.30;11.10;;;20.10;47.00;;;;;;5054998;28;20825;-55
2024/03/10 11:26:05;;;;;;;15.23;12.70;;;20.20;47.20;;;;;;5054534;28;20972;-55
2024/03/10 11:28:48;;;;;;;13.10;11.70;;;20.20;47.70;;;;;;5054851;28;20456;-55
2024/03/10 11:31:16;;;;;;;12.97;11.67;;;20.20;47.60;;;;;;5054922;28;20481;-56
2024/03/10 11:33:44;;;;;;;12.33;11.20;;;20.10;47.20;;;;;;5054439;28;20496;-56
2024/03/10 11:36:11;;;;;;;13.40;12.00;;;20.30;47.40;;;;;;5053822;28;20505;-56
2024/03/10 11:38:38;;;;;;;12.93;11.27;;;21.00;46.90;;;;;;5054091;28;20936;-56
2024/03/10 11:41:08;;;;;;;11.77;10.57;;;21.80;44.20;;;;;;5054656;28;20548;-55
2024/03/10 11:43:36;;;;;;;12.83;11.40;;;22.60;42.40;;;;;;5055378;28;20438;-56
2024/03/10 11:46:15;;;;;;;13.20;10.93;;;23.10;41.50;;;;;;5054739;28;20470;-57
2024/03/10 11:48:42;;;;;;;12.50;11.30;;;23.60;40.30;;;;;;5054527;28;20432;-56
2024/03/10 11:51:09;;;;;;;12.87;11.57;;;23.80;40.10;;;;;;5054075;28;20481;-56
2024/03/10 11:53:35;;;;;;;12.07;10.97;;;24.00;39.50;;;;;;5053945;28;21062;-57
2024/03/10 11:56:03;;;;;;;13.80;12.50;;;24.20;39.20;;;;;;5054009;28;20850;-57
2024/03/10 11:58:33;;;;;;;13.13;11.83;;;24.40;38.80;;;;;;5054197;28;21025;-57
2024/03/10 12:01:05;;;;;;;13.17;11.87;;;24.40;38.50;;;;;;5054514;28;20450;-57
2024/03/10 12:03:34;;;;;;;13.10;11.67;;;24.60;38.60;;;;;;5054134;28;20422;-56
2024/03/10 12:06:01;;;;;;;12.07;10.97;;;25.20;38.20;;;;;;5053968;28;20553;-56
2024/03/10 12:08:28;;;;;;;12.00;10.90;;;25.50;36.50;;;;;;5054083;28;20444;-57
2024/03/10 12:10:58;;;;;;;12.77;11.67;;;25.70;36.50;;;;;;5053882;28;20448;-56
2024/03/10 12:13:26;;;;;;;12.00;10.90;;;25.70;36.40;;;;;;5053809;28;20917;-57
2024/03/10 12:15:58;;;;;;;11.47;10.40;;;25.60;36.00;;;;;;5053813;28;20470;-57
2024/03/10 12:18:25;;;;;;;12.50;10.23;;;25.50;36.40;;;;;;5053775;28;20528;-57
2024/03/10 12:20:53;;;;;;;11.63;10.53;;;25.70;35.80;;;;;;5053500;28;20944;-56
2024/03/10 12:23:21;;;;;;;11.70;10.60;;;25.70;35.60;;;;;;5053346;28;20940;-56
2024/03/10 12:25:48;;;;;;;10.63;9.73;;;25.70;35.90;;;;;;5053612;28;20465;-57
2024/03/10 12:28:15;;;;;;;11.47;10.47;;;26.20;35.50;;;;;;5053629;28;20958;-57
2024/03/10 12:30:42;;;;;;;12.10;10.93;;;26.80;34.80;;;;;;5053569;28;20451;-57
2024/03/10 12:33:10;;;;;;;12.17;10.97;;;27.30;34.00;;;;;;5053438;28;20477;-57
2024/03/10 12:35:37;;;;;;;11.77;10.77;;;27.30;32.60;;;;;;5053545;28;20548;-57
2024/03/10 12:38:04;;;;;;;11.50;10.40;;;27.10;32.90;;;;;;5053752;28;20829;-57
2024/03/10 12:40:33;;;;;;;12.30;11.20;;;26.60;33.50;;;;;;5053885;28;20441;-56
2024/03/10 12:43:01;;;;;;;11.53;10.57;;;26.00;34.10;;;;;;5053400;28;20449;-56
2024/03/10 12:45:28;;;;;;;11.87;10.77;;;25.40;35.00;;;;;;5053721;28;20479;-56
2024/03/10 12:47:55;;;;;;;12.50;11.20;;;24.70;35.50;;;;;;5052874;28;20822;-56
2024/03/10 12:50:24;;;;;;;11.40;10.30;;;24.30;36.50;;;;;;5053830;28;20455;-56
2024/03/10 12:52:51;;;;;;;11.93;10.80;;;23.80;37.50;;;;;;5054150;28;20445;-56
2024/03/10 12:55:18;;;;;;;12.73;11.40;;;23.50;38.50;;;;;;5054313;28;20833;-57